Terminal Aerodrome Forecast
Issued by NWS Huntsville, AL

Home | Current Version | Previous Version | Text Only | Print | Product List | Glossary On
Versions: 1 2 3 4 5 6 7 8 9 10 11 12 13 14 15 16 17 18 19 20 21 22 23 24 25 26 27
000
FTUS44 KHUN 171732
TAFMSL
TAF
KMSL 171732Z 1718/1818 15009KT 4SM -DZ OVC007
     FM172000 15007KT 6SM BR OVC007
     FM180100 13002KT 3SM BR OVC006
     FM180500 11003KT 1SM BR OVC004
     FM180900 11002KT 1/2SM FG OVC003
     FM181300 11002KT 4SM BR OVC008=

USA.gov is the U.S. government's official web portal to all federal, state and local government web resources and services.